createdAt,value
2019-02-09T00:00:12.955Z,99637.98
2019-02-09T00:01:29.031Z,99636.63
2019-02-09T00:02:33.168Z,99634.70
2019-02-09T00:03:37.785Z,99636.98
2019-02-09T00:04:42.108Z,99639.27
2019-02-09T00:05:46.105Z,99634.30
2019-02-09T00:06:50.097Z,99630.14
2019-02-09T00:07:54.403Z,99631.28
2019-02-09T00:08:58.983Z,99639.71
2019-02-09T00:10:03.205Z,99629.98
2019-02-09T00:11:07.643Z,99633.91
2019-02-09T00:12:11.638Z,99630.87
2019-02-09T00:13:15.982Z,99631.62
2019-02-09T00:14:19.977Z,99630.81
2019-02-09T00:15:23.980Z,99627.53
2019-02-09T00:16:27.976Z,99630.22
2019-02-09T00:17:32.252Z,99620.91
2019-02-09T00:18:36.585Z,99603.88
2019-02-09T00:19:40.575Z,99612.89
2019-02-09T00:20:44.572Z,99611.95
2019-02-09T00:21:48.485Z,99609.97
2019-02-09T00:22:52.472Z,99612.50
2019-02-09T00:23:56.457Z,99612.80
2019-02-09T00:25:00.727Z,99611.57
2019-02-09T00:26:04.715Z,99609.70
2019-02-09T00:27:08.950Z,99606.84
2019-02-09T00:28:12.965Z,99607.41
2019-02-09T00:29:16.948Z,99598.52
2019-02-09T00:30:21.048Z,99604.31
2019-02-09T00:31:25.525Z,99596.41
2019-02-09T00:32:29.750Z,99600.86
2019-02-09T00:33:34.238Z,99596.34
2019-02-09T00:34:38.479Z,99589.08
2019-02-09T00:35:42.643Z,99581.26
2019-02-09T00:36:47.139Z,99586.53
2019-02-09T00:37:51.370Z,99580.61
2019-02-09T00:38:55.280Z,99581.73
2019-02-09T00:39:59.253Z,99571.02
2019-02-09T00:41:03.245Z,99566.45
2019-02-09T00:42:07.218Z,99559.19
2019-02-09T00:43:11.447Z,99559.44
2019-02-09T00:44:15.425Z,99559.31
2019-02-09T00:45:19.972Z,99572.09
2019-02-09T00:46:24.206Z,99558.09
2019-02-09T00:47:28.198Z,99560.25
2019-02-09T00:48:32.296Z,99555.27
2019-02-09T00:49:36.894Z,99552.05
2019-02-09T00:50:40.901Z,99551.07
2019-02-09T00:51:44.917Z,99547.84
2019-02-09T00:52:48.902Z,99539.28
2019-02-09T00:53:53.060Z,99540.29
2019-02-09T00:54:57.046Z,99544.80
2019-02-09T00:56:01.304Z,99534.52
2019-02-09T00:57:05.429Z,99527.38
2019-02-09T00:58:09.411Z,99528.26
2019-02-09T00:59:13.763Z,99527.79
2019-02-09T01:00:22.533Z,99534.12
2019-02-09T01:01:26.838Z,99531.42
2019-02-09T01:02:30.824Z,99531.02
2019-02-09T01:03:34.802Z,99532.89
2019-02-09T01:04:38.803Z,99524.75
2019-02-09T01:05:44.934Z,99525.62
2019-02-09T01:06:49.301Z,99522.46
2019-02-09T01:07:53.322Z,99519.70
2019-02-09T01:08:57.429Z,99510.73
2019-02-09T01:10:01.714Z,99512.97
2019-02-09T01:11:05.908Z,99511.69
2019-02-09T01:12:10.253Z,99508.52
2019-02-09T01:13:14.445Z,99508.98
2019-02-09T01:14:19.088Z,99513.81
2019-02-09T01:15:23.083Z,99507.17
2019-02-09T01:16:27.398Z,99502.55
2019-02-09T01:17:31.631Z,99509.58
2019-02-09T01:18:35.973Z,99512.92
2019-02-09T01:19:39.956Z,99502.55
2019-02-09T01:20:43.938Z,99493.83
2019-02-09T01:21:48.284Z,99502.97
2019-02-09T01:22:53.000Z,99501.86
2019-02-09T01:23:57.308Z,99495.80
2019-02-09T01:25:01.749Z,99500.95
2019-02-09T01:26:05.954Z,99498.43
2019-02-09T01:27:10.336Z,99497.36
2019-02-09T01:28:14.539Z,99485.45
2019-02-09T01:29:18.795Z,99477.56
2019-02-09T01:30:24.523Z,99484.61
2019-02-09T01:31:29.769Z,99483.36
2019-02-09T01:32:33.851Z,99471.12
2019-02-09T01:33:37.842Z,99474.80
2019-02-09T01:34:41.832Z,99478.44
2019-02-09T01:35:46.166Z,99472.10
2019-02-09T01:36:50.437Z,99472.95
2019-02-09T01:37:54.426Z,99472.10
2019-02-09T01:38:58.798Z,99469.95
2019-02-09T01:40:03.505Z,99469.54
2019-02-09T01:41:07.486Z,99470.89
2019-02-09T01:42:11.486Z,99454.70
2019-02-09T01:43:15.724Z,99461.38
2019-02-09T01:44:19.989Z,99462.26
2019-02-09T01:45:26.041Z,99455.91
2019-02-09T01:46:30.059Z,99453.22
2019-02-09T01:47:34.274Z,99458.04
2019-02-09T01:48:38.646Z,99456.69
2019-02-09T01:49:42.626Z,99459.25
2019-02-09T01:50:46.896Z,99447.05
2019-02-09T01:51:51.160Z,99451.02
2019-02-09T01:52:55.556Z,99448.62
2019-02-09T01:53:59.884Z,99443.96
2019-02-09T01:55:04.833Z,99448.81
2019-02-09T01:56:09.111Z,99440.55
2019-02-09T01:57:13.124Z,99454.84
2019-02-09T01:58:17.317Z,99450.73
2019-02-09T01:59:21.828Z,99448.33
2019-02-09T02:00:31.331Z,99453.58
2019-02-09T02:01:35.480Z,99459.38
2019-02-09T02:02:40.233Z,99458.73
2019-02-09T02:03:44.720Z,99462.31
2019-02-09T02:04:48.956Z,99460.81
2019-02-09T02:05:52.923Z,99471.95
2019-02-09T02:06:56.903Z,99467.83
2019-02-09T02:08:01.230Z,99472.72
2019-02-09T02:09:08.051Z,99477.10
2019-02-09T02:10:18.940Z,99474.87
2019-02-09T02:11:23.185Z,99469.41
2019-02-09T02:12:27.419Z,99460.77
2019-02-09T02:13:32.074Z,99463.28
2019-02-09T02:14:36.052Z,99467.73
2019-02-09T02:15:40.639Z,99466.31
2019-02-09T02:16:44.612Z,99468.94
2019-02-09T02:17:49.087Z,99468.40
2019-02-09T02:18:53.437Z,99471.50
2019-02-09T02:19:57.415Z,99474.09
2019-02-09T02:21:01.390Z,99473.14
2019-02-09T02:22:05.362Z,99477.05
2019-02-09T02:23:09.378Z,99436.39
2019-02-09T02:24:13.576Z,99473.70
2019-02-09T02:25:18.466Z,99474.69
2019-02-09T02:26:22.694Z,99476.80
2019-02-09T02:27:26.907Z,99481.73
2019-02-09T02:28:31.707Z,99483.41
2019-02-09T02:29:35.922Z,99471.41
2019-02-09T02:30:40.002Z,99478.01
2019-02-09T02:31:44.218Z,99478.16
2019-02-09T02:32:48.122Z,99472.45
2019-02-09T02:33:52.364Z,99479.68
2019-02-09T02:34:56.337Z,99479.28
2019-02-09T02:36:00.554Z,99478.62
2019-02-09T02:37:05.048Z,99476.50
2019-02-09T02:38:09.416Z,99477.04
2019-02-09T02:39:13.399Z,99472.59
2019-02-09T02:40:18.203Z,99447.75
2019-02-09T02:41:22.358Z,99462.82
2019-02-09T02:42:26.597Z,99466.94
2019-02-09T02:43:30.827Z,99465.59
2019-02-09T02:44:34.804Z,99452.49
2019-02-09T02:45:38.777Z,99449.65
2019-02-09T02:46:42.755Z,99448.30
2019-02-09T02:47:47.083Z,99451.33
2019-02-09T02:48:51.427Z,99448.62
2019-02-09T02:49:55.345Z,99443.05
2019-02-09T02:50:59.682Z,99446.48
2019-02-09T02:52:03.674Z,99449.65
2019-02-09T02:53:07.930Z,99443.23
2019-02-09T02:54:12.224Z,99446.80
2019-02-09T02:55:24.288Z,99456.15
2019-02-09T02:56:28.285Z,99452.90
2019-02-09T02:57:33.208Z,99455.05
2019-02-09T02:58:37.455Z,99452.69
2019-02-09T02:59:42.335Z,99454.40
2019-02-09T03:00:46.670Z,99453.52
2019-02-09T03:01:50.976Z,99447.09
2019-02-09T03:02:55.280Z,99452.02
2019-02-09T03:03:59.149Z,99450.20
2019-02-09T03:05:03.119Z,99445.20
2019-02-09T03:06:07.335Z,99446.47
2019-02-09T03:07:12.743Z,99446.40
2019-02-09T03:08:16.667Z,99439.14
2019-02-09T03:09:20.671Z,99440.02
2019-02-09T03:10:25.064Z,99439.06
2019-02-09T03:11:29.052Z,99447.09
2019-02-09T03:12:33.077Z,99441.14
2019-02-09T03:13:37.264Z,99448.30
2019-02-09T03:14:41.835Z,99443.29
2019-02-09T03:15:46.249Z,99445.59
2019-02-09T03:16:50.547Z,99451.77
2019-02-09T03:17:54.897Z,99448.30
2019-02-09T03:18:58.859Z,99446.47
2019-02-09T03:20:03.072Z,99441.94
2019-02-09T03:21:07.058Z,99436.06
2019-02-09T03:22:11.007Z,99442.81
2019-02-09T03:23:15.222Z,99441.12
2019-02-09T03:24:19.132Z,99441.68
2019-02-09T03:25:25.444Z,99449.38
2019-02-09T03:26:29.438Z,99434.12
2019-02-09T03:27:33.743Z,99437.23
2019-02-09T03:28:38.160Z,99430.80
2019-02-09T03:29:42.146Z,99419.59
2019-02-09T03:30:48.612Z,99412.84
2019-02-09T03:31:51.892Z,99405.61
2019-02-09T03:32:55.874Z,99411.01
2019-02-09T03:33:59.842Z,99417.69
2019-02-09T03:35:04.838Z,99422.22
2019-02-09T03:36:09.168Z,99438.42
2019-02-09T03:37:13.450Z,99443.36
2019-02-09T03:38:18.349Z,99438.42
2019-02-09T03:39:22.558Z,99449.63
2019-02-09T03:40:26.994Z,99441.12
2019-02-09T03:41:31.595Z,99442.88
2019-02-09T03:42:35.869Z,99445.66
2019-02-09T03:43:40.219Z,99441.93
2019-02-09T03:44:44.507Z,99440.18
2019-02-09T03:45:48.831Z,99445.47
2019-02-09T03:46:52.818Z,99431.89
2019-02-09T03:47:57.134Z,99426.00
2019-02-09T03:49:01.436Z,99426.48
2019-02-09T03:50:07.278Z,99413.92
2019-02-09T03:51:11.720Z,99424.66
2019-02-09T03:52:15.947Z,99423.70
2019-02-09T03:53:20.812Z,99427.76
2019-02-09T03:54:25.052Z,99426.88
2019-02-09T03:55:29.455Z,99409.64
2019-02-09T03:56:33.500Z,99418.62
2019-02-09T03:57:37.484Z,99418.62
2019-02-09T03:58:41.472Z,99424.64
2019-02-09T03:59:45.458Z,99430.59
2019-02-09T04:00:55.277Z,99431.58
2019-02-09T04:01:55.449Z,99436.98
2019-02-09T04:02:59.910Z,99426.18
2019-02-09T04:04:04.917Z,99417.09
2019-02-09T04:05:09.744Z,99425.04
2019-02-09T04:06:14.509Z,99424.48
2019-02-09T04:07:18.778Z,99413.41
2019-02-09T04:08:23.071Z,99403.66
2019-02-09T04:09:27.099Z,99400.96
2019-02-09T04:10:31.080Z,99406.84
2019-02-09T04:11:35.182Z,99413.48
2019-02-09T04:12:39.691Z,99404.03
2019-02-09T04:13:43.672Z,99401.33
2019-02-09T04:14:47.897Z,99405.38
2019-02-09T04:15:51.875Z,99400.38
2019-02-09T04:16:56.042Z,99411.11
2019-02-09T04:18:00.023Z,99396.01
2019-02-09T04:19:04.004Z,99401.09
2019-02-09T04:20:09.853Z,99416.28
2019-02-09T04:21:14.519Z,99398.13
2019-02-09T04:22:18.743Z,99408.94
2019-02-09T04:23:22.720Z,99403.05
2019-02-09T04:24:26.709Z,99407.98
2019-02-09T04:25:30.614Z,99403.45
2019-02-09T04:26:34.605Z,99410.61
2019-02-09T04:27:39.369Z,99412.75
2019-02-09T04:28:43.605Z,99405.13
2019-02-09T04:29:47.586Z,99399.84
2019-02-09T04:30:51.564Z,99416.22
2019-02-09T04:31:56.090Z,99408.03
2019-02-09T04:33:00.138Z,99398.65
2019-02-09T04:34:04.564Z,99413.04
2019-02-09T04:35:08.611Z,99412.97
2019-02-09T04:36:12.588Z,99415.75
2019-02-09T04:37:16.841Z,99413.04
2019-02-09T04:38:21.067Z,99418.77
2019-02-09T04:39:25.144Z,99413.84
2019-02-09T04:40:31.031Z,99403.38
2019-02-09T04:41:35.440Z,99412.77
2019-02-09T04:42:39.433Z,99435.34
2019-02-09T04:43:43.606Z,99426.68
2019-02-09T04:44:48.253Z,99417.02
2019-02-09T04:45:52.141Z,99434.20
2019-02-09T04:46:56.136Z,99428.63
2019-02-09T04:48:00.463Z,99421.40
2019-02-09T04:49:04.451Z,99437.06
2019-02-09T04:50:09.695Z,99431.55
2019-02-09T04:51:14.272Z,99432.90
2019-02-09T04:52:18.994Z,99439.18
2019-02-09T04:53:23.235Z,99428.84
2019-02-09T04:54:27.707Z,99426.53
2019-02-09T04:55:31.932Z,99430.03
2019-02-09T04:56:36.119Z,99432.58
2019-02-09T04:57:40.469Z,99430.75
2019-02-09T04:58:44.452Z,99443.40
2019-02-09T04:59:48.442Z,99432.98
2019-02-09T05:00:52.434Z,99429.40
2019-02-09T05:01:56.424Z,99418.87
2019-02-09T05:03:01.298Z,99436.37
2019-02-09T05:04:05.585Z,99433.98
2019-02-09T05:05:09.909Z,99432.31
2019-02-09T05:06:13.823Z,99444.87
2019-02-09T05:07:17.735Z,99427.78
2019-02-09T05:08:21.869Z,99438.12
2019-02-09T05:09:25.787Z,99442.66
2019-02-09T05:10:29.778Z,99445.83
2019-02-09T05:11:33.766Z,99443.84
2019-02-09T05:12:37.762Z,99434.94
2019-02-09T05:13:42.410Z,99425.86
2019-02-09T05:14:46.591Z,99434.38
2019-02-09T05:15:50.989Z,99421.89
2019-02-09T05:16:55.210Z,99430.40
2019-02-09T05:17:59.365Z,99438.52
2019-02-09T05:19:03.394Z,99432.55
2019-02-09T05:20:10.388Z,99433.98
2019-02-09T05:21:14.382Z,99433.90
2019-02-09T05:22:18.473Z,99435.73
2019-02-09T05:23:22.490Z,99438.72
2019-02-09T05:24:26.468Z,99433.42
2019-02-09T05:25:31.029Z,99435.14
2019-02-09T05:26:35.352Z,99433.78
2019-02-09T05:27:39.595Z,99430.13
2019-02-09T05:28:43.997Z,99432.27
2019-02-09T05:29:48.448Z,99442.70
2019-02-09T05:30:52.436Z,99442.70
2019-02-09T05:31:56.958Z,99434.98
2019-02-09T05:33:01.576Z,99438.16
2019-02-09T05:34:06.291Z,99446.99
2019-02-09T05:35:10.887Z,99438.48
2019-02-09T05:36:14.883Z,99439.44
2019-02-09T05:37:19.347Z,99420.81
2019-02-09T05:38:23.339Z,99442.70
2019-02-09T05:39:27.670Z,99442.06
2019-02-09T05:40:31.942Z,99444.29
2019-02-09T05:41:35.940Z,99446.99
2019-02-09T05:42:40.245Z,99452.28
2019-02-09T05:43:44.567Z,99455.66
2019-02-09T05:44:48.563Z,99451.13
2019-02-09T05:45:53.269Z,99457.17
2019-02-09T05:46:57.478Z,99470.30
2019-02-09T05:48:01.463Z,99475.83
2019-02-09T05:49:05.843Z,99480.36
2019-02-09T05:50:11.325Z,99483.83
2019-02-09T05:51:15.236Z,99492.21
2019-02-09T05:52:19.232Z,99490.45
2019-02-09T05:53:23.864Z,99490.14
2019-02-09T05:54:27.774Z,99495.19
2019-02-09T05:55:31.997Z,99492.55
2019-02-09T05:56:35.967Z,99498.44
2019-02-09T05:57:39.951Z,99495.81
2019-02-09T05:58:44.204Z,99487.70
2019-02-09T05:59:48.122Z,99486.83
2019-02-09T06:00:52.095Z,99488.02
2019-02-09T06:01:56.333Z,99499.47
2019-02-09T06:03:00.484Z,99501.70
2019-02-09T06:04:04.665Z,99500.34
2019-02-09T06:05:09.684Z,99498.13
2019-02-09T06:06:13.659Z,99503.60
2019-02-09T06:07:17.881Z,99523.18
2019-02-09T06:08:21.790Z,99503.92
2019-02-09T06:09:26.023Z,99512.05
2019-02-09T06:10:30.541Z,99511.56
2019-02-09T06:11:34.496Z,99516.50
2019-02-09T06:12:38.488Z,99520.16
2019-02-09T06:13:42.468Z,99520.55
2019-02-09T06:14:46.460Z,99529.55
2019-02-09T06:15:50.948Z,99528.11
2019-02-09T06:16:55.173Z,99526.28
2019-02-09T06:17:59.157Z,99538.82
2019-02-09T06:19:03.144Z,99529.06
2019-02-09T06:20:08.130Z,99532.17
2019-02-09T06:21:12.110Z,99527.31
2019-02-09T06:22:16.089Z,99521.11
2019-02-09T06:23:20.327Z,99524.47
2019-02-09T06:24:24.233Z,99529.56
2019-02-09T06:25:28.319Z,99535.04
2019-02-09T06:26:32.231Z,99537.83
2019-02-09T06:27:36.381Z,99542.36
2019-02-09T06:28:40.648Z,99549.04
2019-02-09T06:29:44.864Z,99547.77
2019-02-09T06:30:48.779Z,99550.47
2019-02-09T06:31:52.765Z,99546.81
2019-02-09T06:32:56.996Z,99551.34
2019-02-09T06:34:01.223Z,99549.11
2019-02-09T06:35:05.963Z,99559.45
2019-02-09T06:36:10.450Z,99555.39
2019-02-09T06:37:14.279Z,99561.28
2019-02-09T06:38:18.533Z,99564.31
2019-02-09T06:39:22.687Z,99567.41
2019-02-09T06:40:26.771Z,99573.63
2019-02-09T06:41:30.705Z,99577.69
2019-02-09T06:42:34.945Z,99576.22
2019-02-09T06:43:39.355Z,99583.38
2019-02-09T06:44:43.598Z,99584.26
2019-02-09T06:45:47.605Z,99583.23
2019-02-09T06:46:51.517Z,99575.67
2019-02-09T06:48:14.611Z,99568.91
2019-02-09T06:49:18.524Z,99577.02
2019-02-09T06:50:28.454Z,99576.80
2019-02-09T06:51:32.452Z,99568.52
2019-02-09T06:52:36.447Z,99591.69
2019-02-09T06:53:41.288Z,99579.30
2019-02-09T06:54:45.397Z,99580.91
2019-02-09T06:55:49.391Z,99581.17
2019-02-09T06:56:53.382Z,99575.58
2019-02-09T06:57:57.689Z,99582.05
2019-02-09T06:59:02.023Z,99582.59
2019-02-09T07:00:07.714Z,99578.06
2019-02-09T07:01:12.297Z,99579.34
2019-02-09T07:02:16.555Z,99585.22
2019-02-09T07:03:20.465Z,99577.98
2019-02-09T07:04:24.460Z,99575.03
2019-02-09T07:05:28.774Z,99582.41
2019-02-09T07:06:33.134Z,99577.11
2019-02-09T07:07:37.113Z,99580.36
2019-02-09T07:08:41.095Z,99577.80
2019-02-09T07:09:45.117Z,99584.33
2019-02-09T07:10:49.444Z,99580.83
2019-02-09T07:11:53.992Z,99581.77
2019-02-09T07:12:58.304Z,99578.38
2019-02-09T07:14:02.702Z,99578.99
2019-02-09T07:15:08.595Z,99584.80
2019-02-09T07:16:12.865Z,99593.99
2019-02-09T07:17:16.869Z,99587.81
2019-02-09T07:18:21.147Z,99596.87
2019-02-09T07:19:26.153Z,99591.54
2019-02-09T07:20:30.750Z,99586.68
2019-02-09T07:21:35.317Z,99597.95
2019-02-09T07:22:39.226Z,99600.66
2019-02-09T07:23:43.531Z,99597.55
2019-02-09T07:24:47.694Z,99604.30
2019-02-09T07:25:51.854Z,99601.61
2019-02-09T07:26:55.985Z,99605.11
2019-02-09T07:28:00.881Z,99613.63
2019-02-09T07:29:05.476Z,99605.52
2019-02-09T07:30:13.067Z,99608.22
2019-02-09T07:31:16.982Z,99608.62
2019-02-09T07:32:21.276Z,99613.88
2019-02-09T07:33:25.269Z,99608.84
2019-02-09T07:34:29.251Z,99606.55
2019-02-09T07:35:33.236Z,99611.88
2019-02-09T07:36:37.507Z,99604.25
2019-02-09T07:37:41.753Z,99599.73
2019-02-09T07:38:45.902Z,99607.36
2019-02-09T07:39:50.099Z,99610.32
2019-02-09T07:40:54.716Z,99605.46
2019-02-09T07:41:58.724Z,99615.14
2019-02-09T07:43:03.336Z,99617.92
2019-02-09T07:44:07.547Z,99609.92
2019-02-09T07:45:13.894Z,99603.06
2019-02-09T07:46:17.880Z,99608.32
2019-02-09T07:47:21.809Z,99613.72
2019-02-09T07:48:25.797Z,99616.42
2019-02-09T07:49:30.513Z,99615.48
2019-02-09T07:50:34.491Z,99612.70
2019-02-09T07:51:38.819Z,99617.16
2019-02-09T07:52:42.911Z,99616.03
2019-02-09T07:53:46.946Z,99617.72
2019-02-09T07:54:51.419Z,99630.51
2019-02-09T07:55:55.418Z,99626.71
2019-02-09T07:56:59.411Z,99634.65
2019-02-09T07:58:03.827Z,99629.91
2019-02-09T07:59:07.734Z,99642.66
2019-02-09T08:00:15.025Z,99640.09
2019-02-09T08:01:19.558Z,99644.81
2019-02-09T08:02:23.652Z,99638.52
2019-02-09T08:03:27.644Z,99642.17
2019-02-09T08:04:31.620Z,99647.33
2019-02-09T08:05:35.708Z,99636.02
2019-02-09T08:06:41.296Z,99640.40
2019-02-09T08:07:45.310Z,99643.87
2019-02-09T08:08:49.802Z,99633.78
2019-02-09T08:09:53.780Z,99637.97
2019-02-09T08:10:57.762Z,99630.97
2019-02-09T08:12:01.748Z,99636.59
2019-02-09T08:13:07.437Z,99640.11
2019-02-09T08:14:11.415Z,99653.09
2019-02-09T08:15:20.503Z,99652.34
2019-02-09T08:16:24.795Z,99654.49
2019-02-09T08:17:29.691Z,99658.21
2019-02-09T08:18:33.729Z,99663.88
2019-02-09T08:19:37.716Z,99658.27
2019-02-09T08:20:41.710Z,99654.69
2019-02-09T08:21:46.004Z,99658.34
2019-02-09T08:22:50.037Z,99655.95
2019-02-09T08:23:53.986Z,99650.94
2019-02-09T08:24:58.313Z,99660.63
2019-02-09T08:26:02.296Z,99651.16
2019-02-09T08:27:06.629Z,99662.38
2019-02-09T08:28:11.136Z,99669.47
2019-02-09T08:29:15.441Z,99669.55
2019-02-09T08:30:22.114Z,99670.67
2019-02-09T08:31:26.120Z,99661.28
2019-02-09T08:32:31.406Z,99674.30
2019-02-09T08:33:35.685Z,99668.89
2019-02-09T08:34:39.801Z,99684.94
2019-02-09T08:35:44.149Z,99666.86
2019-02-09T08:36:48.141Z,99674.34
2019-02-09T08:37:52.133Z,99675.91
2019-02-09T08:38:56.130Z,99678.86
2019-02-09T08:40:00.373Z,99673.17
2019-02-09T08:41:04.826Z,99684.52
2019-02-09T08:42:09.132Z,99675.84
2019-02-09T08:43:13.295Z,99683.25
2019-02-09T08:44:17.270Z,99674.52
2019-02-09T08:45:21.487Z,99664.88
2019-02-09T08:46:25.519Z,99656.86
2019-02-09T08:47:30.114Z,99670.59
2019-02-09T08:48:34.458Z,99671.36
2019-02-09T08:49:38.736Z,99665.37
2019-02-09T08:51:03.320Z,99676.61
2019-02-09T08:52:07.929Z,99679.16
2019-02-09T08:53:12.025Z,99681.67
2019-02-09T08:54:16.025Z,99670.83
2019-02-09T08:55:20.570Z,99673.14
2019-02-09T08:56:24.854Z,99681.03
2019-02-09T08:57:28.876Z,99685.20
2019-02-09T08:58:32.869Z,99680.07
2019-02-09T08:59:36.800Z,99688.28
2019-02-09T09:00:40.858Z,99686.53
2019-02-09T09:01:44.917Z,99678.88
2019-02-09T09:02:48.929Z,99688.68
2019-02-09T09:03:53.101Z,99678.40
2019-02-09T09:04:57.281Z,99696.62
2019-02-09T09:06:01.626Z,99689.88
2019-02-09T09:07:06.970Z,99689.88
2019-02-09T09:08:10.957Z,99692.07
2019-02-09T09:09:15.454Z,99696.42
2019-02-09T09:10:20.364Z,99705.52
2019-02-09T09:11:24.844Z,99707.98
2019-02-09T09:12:28.694Z,99703.92
2019-02-09T09:13:32.935Z,99706.44
2019-02-09T09:14:37.179Z,99705.88
2019-02-09T09:15:46.616Z,99720.47
2019-02-09T09:16:50.609Z,99693.36
2019-02-09T09:17:55.195Z,99706.03
2019-02-09T09:18:59.172Z,99719.19
2019-02-09T09:20:03.180Z,99718.63
2019-02-09T09:21:07.203Z,99723.66
2019-02-09T09:22:11.115Z,99723.09
2019-02-09T09:23:15.091Z,99731.91
2019-02-09T09:24:19.379Z,99723.22
2019-02-09T09:25:24.256Z,99715.20
2019-02-09T09:26:28.739Z,99729.78
2019-02-09T09:27:32.721Z,99733.48
2019-02-09T09:28:36.955Z,99728.66
2019-02-09T09:29:40.957Z,99725.61
2019-02-09T09:30:45.445Z,99721.66
2019-02-09T09:31:49.824Z,99728.94
2019-02-09T09:32:54.052Z,99736.80
2019-02-09T09:33:58.046Z,99739.34
2019-02-09T09:35:02.046Z,99741.69
2019-02-09T09:36:06.711Z,99731.14
2019-02-09T09:37:10.731Z,99716.92
2019-02-09T09:38:14.714Z,99733.39
2019-02-09T09:39:18.729Z,99721.28
2019-02-09T09:40:27.936Z,99740.81
2019-02-09T09:41:31.945Z,99723.19
2019-02-09T09:42:36.175Z,99738.22
2019-02-09T09:43:40.154Z,99729.30
2019-02-09T09:44:44.437Z,99726.80
2019-02-09T09:45:48.420Z,99731.54
2019-02-09T09:46:52.578Z,99732.33
2019-02-09T09:47:57.073Z,99734.95
2019-02-09T09:49:01.066Z,99741.09
2019-02-09T09:50:07.914Z,99744.08
2019-02-09T09:51:11.922Z,99744.77
2019-02-09T09:52:16.251Z,99752.45
2019-02-09T09:53:20.561Z,99749.95
2019-02-09T09:54:24.918Z,99735.70
2019-02-09T09:55:29.283Z,99746.17
2019-02-09T09:56:33.585Z,99748.63
2019-02-09T09:57:37.928Z,99752.00
2019-02-09T09:58:42.206Z,99755.02
2019-02-09T09:59:46.641Z,99766.67
2019-02-09T10:00:50.873Z,99777.06
2019-02-09T10:01:56.549Z,99781.50
2019-02-09T10:03:01.043Z,99779.66
2019-02-09T10:04:05.624Z,99790.27
2019-02-09T10:05:09.749Z,99789.69
2019-02-09T10:06:13.735Z,99784.52
2019-02-09T10:07:17.960Z,99786.27
2019-02-09T10:08:24.419Z,99786.09
2019-02-09T10:09:31.140Z,99789.59
2019-02-09T10:10:35.411Z,99793.06
2019-02-09T10:11:39.403Z,99792.49
2019-02-09T10:12:43.385Z,99792.19
2019-02-09T10:13:47.868Z,99788.32
2019-02-09T10:14:52.345Z,99798.11
2019-02-09T10:15:56.337Z,99794.25
2019-02-09T10:17:00.823Z,99789.95
2019-02-09T10:18:05.823Z,99796.27
2019-02-09T10:19:10.042Z,99800.47
2019-02-09T10:20:16.387Z,99806.56
2019-02-09T10:21:20.318Z,99805.78
2019-02-09T10:22:24.295Z,99806.00
2019-02-09T10:23:28.248Z,99807.23
2019-02-09T10:24:32.160Z,99813.06
2019-02-09T10:25:36.331Z,99806.36
2019-02-09T10:26:40.317Z,99808.02
2019-02-09T10:27:45.013Z,99805.52
2019-02-09T10:28:49.665Z,99813.84
2019-02-09T10:29:54.535Z,99806.30
2019-02-09T10:30:59.151Z,99811.73
2019-02-09T10:32:03.257Z,99790.94
2019-02-09T10:33:07.178Z,99805.01
2019-02-09T10:34:11.433Z,99795.39
2019-02-09T10:35:15.744Z,99791.10
2019-02-09T10:36:20.056Z,99789.84
2019-02-09T10:37:24.058Z,99783.34
2019-02-09T10:38:28.103Z,99788.94
2019-02-09T10:39:32.363Z,99792.45
2019-02-09T10:40:36.347Z,99792.61
2019-02-09T10:41:40.671Z,99793.79
2019-02-09T10:42:45.119Z,99793.20
2019-02-09T10:43:49.407Z,99782.72
2019-02-09T10:44:53.899Z,99781.75
2019-02-09T10:45:59.159Z,99787.28
2019-02-09T10:47:03.502Z,99787.95
2019-02-09T10:48:12.575Z,99784.45
2019-02-09T10:49:15.638Z,99788.92
2019-02-09T10:50:30.704Z,99799.72
2019-02-09T10:51:34.693Z,99793.48
2019-02-09T10:52:38.940Z,99802.14
2019-02-09T10:53:42.930Z,99784.84
2019-02-09T10:54:47.726Z,99789.15
2019-02-09T10:55:52.034Z,99786.59
2019-02-09T10:56:56.445Z,99780.37
2019-02-09T10:58:00.863Z,99773.89
2019-02-09T10:59:05.369Z,99789.33
2019-02-09T11:00:14.049Z,99791.66
2019-02-09T11:01:20.249Z,99798.08
2019-02-09T11:02:24.543Z,99784.38
2019-02-09T11:03:29.060Z,99780.20
2019-02-09T11:04:35.455Z,99781.36
2019-02-09T11:05:39.543Z,99782.95
2019-02-09T11:06:43.643Z,99790.23
2019-02-09T11:07:48.063Z,99780.98
2019-02-09T11:08:52.806Z,99772.95
2019-02-09T11:09:57.877Z,99778.17
2019-02-09T11:11:01.871Z,99769.92
2019-02-09T11:12:06.269Z,99766.91
2019-02-09T11:13:10.449Z,99771.28
2019-02-09T11:14:14.737Z,99770.31
2019-02-09T11:15:19.486Z,99784.49
2019-02-09T11:16:23.494Z,99782.96
2019-02-09T11:17:27.766Z,99797.63
2019-02-09T11:18:32.100Z,99807.72
2019-02-09T11:19:36.010Z,99802.67
2019-02-09T11:20:40.002Z,99801.49
2019-02-09T11:21:44.279Z,99773.45
2019-02-09T11:22:48.474Z,99779.86
2019-02-09T11:23:54.279Z,99792.37
2019-02-09T11:24:58.799Z,99789.77
2019-02-09T11:26:02.793Z,99791.60
2019-02-09T11:27:06.774Z,99805.11
2019-02-09T11:28:11.695Z,99789.45
2019-02-09T11:29:15.851Z,99789.27
2019-02-09T11:30:21.538Z,99793.42
2019-02-09T11:31:25.518Z,99782.44
2019-02-09T11:32:29.740Z,99788.92
2019-02-09T11:33:33.660Z,99790.27
2019-02-09T11:34:37.640Z,99792.70
2019-02-09T11:35:41.614Z,99778.75
2019-02-09T11:36:45.850Z,99786.75
2019-02-09T11:37:49.832Z,99784.72
2019-02-09T11:38:53.827Z,99787.18
2019-02-09T11:39:57.809Z,99783.97
2019-02-09T11:41:02.056Z,99793.50
2019-02-09T11:42:06.282Z,99779.80
2019-02-09T11:43:10.265Z,99796.91
2019-02-09T11:44:14.260Z,99788.61
2019-02-09T11:45:20.492Z,99792.84
2019-02-09T11:46:25.654Z,99784.78
2019-02-09T11:47:29.731Z,99784.39
2019-02-09T11:48:33.998Z,99786.05
2019-02-09T11:49:38.757Z,99791.09
2019-02-09T11:50:42.731Z,99799.27
2019-02-09T11:51:46.969Z,99781.77
2019-02-09T11:52:50.978Z,99788.28
2019-02-09T11:53:54.981Z,99787.69
2019-02-09T11:54:59.324Z,99792.84
2019-02-09T11:56:03.314Z,99782.73
2019-02-09T11:57:07.634Z,99773.79
2019-02-09T11:58:12.031Z,99785.66
2019-02-09T11:59:16.035Z,99788.95
2019-02-09T12:00:25.985Z,99785.42
2019-02-09T12:01:30.905Z,99776.28
2019-02-09T12:02:35.214Z,99779.20
2019-02-09T12:03:39.525Z,99777.48
2019-02-09T12:04:43.793Z,99767.95
2019-02-09T12:05:48.087Z,99779.39
2019-02-09T12:06:52.332Z,99774.87
2019-02-09T12:07:56.332Z,99776.42
2019-02-09T12:09:00.613Z,99779.69
2019-02-09T12:10:06.028Z,99766.59
2019-02-09T12:11:10.320Z,99774.53
2019-02-09T12:12:14.706Z,99762.99
2019-02-09T12:13:18.703Z,99769.47
2019-02-09T12:14:22.712Z,99765.97
2019-02-09T12:15:31.968Z,99761.14
2019-02-09T12:16:35.969Z,99768.16
2019-02-09T12:17:39.966Z,99778.23
2019-02-09T12:18:43.961Z,99774.43
2019-02-09T12:19:47.977Z,99769.42
2019-02-09T12:20:51.973Z,99771.17
2019-02-09T12:21:56.533Z,99770.88
2019-02-09T12:23:00.864Z,99774.19
2019-02-09T12:24:04.852Z,99777.35
2019-02-09T12:25:11.550Z,99782.41
2019-02-09T12:26:15.574Z,99780.89
2019-02-09T12:27:20.093Z,99783.09
2019-02-09T12:28:24.158Z,99796.13
2019-02-09T12:29:28.452Z,99779.20
2019-02-09T12:30:34.401Z,99777.39
2019-02-09T12:31:38.642Z,99785.08
2019-02-09T12:32:42.766Z,99775.06
2019-02-09T12:33:47.164Z,99772.59
2019-02-09T12:34:51.404Z,99795.87
2019-02-09T12:35:55.672Z,99795.06
2019-02-09T12:37:00.284Z,99780.02